createdAt,value
2022-09-27T00:00:42.908Z,64.87
2022-09-27T00:03:13.476Z,64.71
2022-09-27T00:05:40.901Z,64.64
2022-09-27T00:08:08.216Z,64.64
2022-09-27T00:10:35.815Z,64.99
2022-09-27T00:13:03.362Z,64.99
2022-09-27T00:15:30.655Z,65.04
2022-09-27T00:17:58.226Z,64.92
2022-09-27T00:20:26.168Z,64.76
2022-09-27T00:22:55.963Z,64.77
2022-09-27T00:25:23.514Z,64.72
2022-09-27T00:27:51.020Z,64.88
2022-09-27T00:30:18.351Z,64.76
2022-09-27T00:32:45.919Z,64.10
2022-09-27T00:35:13.731Z,63.77
2022-09-27T00:37:41.123Z,64.23
2022-09-27T00:40:09.127Z,64.12
2022-09-27T00:42:36.628Z,64.05
2022-09-27T00:45:06.780Z,64.24
2022-09-27T00:47:40.354Z,64.30
2022-09-27T00:50:22.283Z,63.97
2022-09-27T00:53:08.230Z,64.10
2022-09-27T00:55:59.394Z,64.10
2022-09-27T00:58:30.523Z,64.37
2022-09-27T01:01:01.396Z,64.62
2022-09-27T01:03:41.034Z,64.59
2022-09-27T01:06:09.216Z,64.77
2022-09-27T01:08:36.787Z,64.68
2022-09-27T01:11:14.800Z,65.03
2022-09-27T01:14:13.053Z,64.85
2022-09-27T01:16:54.971Z,64.92
2022-09-27T01:19:51.112Z,64.95
2022-09-27T01:22:56.200Z,65.02
2022-09-27T01:25:47.837Z,65.23
2022-09-27T01:28:41.420Z,65.11
2022-09-27T01:31:30.580Z,65.44
2022-09-27T01:34:23.640Z,65.46
2022-09-27T01:37:04.130Z,65.44
2022-09-27T01:39:37.243Z,65.20
2022-09-27T01:42:22.189Z,65.22
2022-09-27T01:44:58.421Z,65.17
2022-09-27T01:47:34.068Z,65.14
2022-09-27T01:50:07.057Z,65.15
2022-09-27T01:52:46.941Z,64.46
2022-09-27T01:55:17.043Z,64.26
2022-09-27T01:57:52.213Z,64.49
2022-09-27T02:00:20.699Z,64.21
2022-09-27T02:02:56.077Z,64.24
2022-09-27T02:05:30.735Z,63.99
2022-09-27T02:08:06.486Z,63.81
2022-09-27T02:10:38.391Z,63.63
2022-09-27T02:13:11.137Z,63.66
2022-09-27T02:16:07.840Z,63.74
2022-09-27T02:18:45.982Z,63.66
2022-09-27T02:21:15.222Z,63.62
2022-09-27T02:23:56.827Z,63.46
2022-09-27T02:26:28.123Z,63.42
2022-09-27T02:29:01.779Z,63.59
2022-09-27T02:31:30.214Z,63.88
2022-09-27T02:34:18.219Z,63.99
2022-09-27T02:36:45.875Z,63.57
2022-09-27T02:39:13.440Z,63.65
2022-09-27T02:41:40.895Z,64.08
2022-09-27T02:44:10.615Z,64.08
2022-09-27T02:46:43.827Z,63.91
2022-09-27T02:49:30.236Z,63.42
2022-09-27T02:52:28.758Z,63.50
2022-09-27T02:55:20.705Z,64.04
2022-09-27T02:58:01.021Z,63.83
2022-09-27T03:01:09.307Z,63.66
2022-09-27T03:03:44.700Z,63.62
2022-09-27T03:06:14.259Z,63.65
2022-09-27T03:08:41.947Z,63.73
2022-09-27T03:11:09.490Z,63.68
2022-09-27T03:14:01.430Z,63.98
2022-09-27T03:16:26.836Z,64.04
2022-09-27T03:18:55.136Z,64.58
2022-09-27T03:21:24.636Z,64.81
2022-09-27T03:23:52.095Z,64.51
2022-09-27T03:26:19.805Z,64.77
2022-09-27T03:28:47.118Z,64.94
2022-09-27T03:31:14.889Z,65.07
2022-09-27T03:33:42.922Z,65.45
2022-09-27T03:36:10.435Z,65.72
2022-09-27T03:38:38.292Z,65.83
2022-09-27T03:41:06.610Z,65.87
2022-09-27T03:43:33.950Z,66.01
2022-09-27T03:46:02.213Z,65.88
2022-09-27T03:48:31.112Z,66.32
2022-09-27T03:50:58.599Z,66.26
2022-09-27T03:53:26.335Z,66.43
2022-09-27T03:55:53.873Z,66.69
2022-09-27T03:58:21.302Z,66.77
2022-09-27T04:00:49.042Z,66.88
2022-09-27T04:03:17.576Z,67.00
2022-09-27T04:05:46.880Z,66.86
2022-09-27T04:08:14.924Z,66.50
2022-09-27T04:10:43.043Z,66.50
2022-09-27T04:13:10.559Z,66.60
2022-09-27T04:15:39.400Z,66.53
2022-09-27T04:18:10.715Z,66.42
2022-09-27T04:20:40.152Z,66.92
2022-09-27T04:23:08.219Z,66.88
2022-09-27T04:25:36.746Z,66.82
2022-09-27T04:28:06.102Z,66.84
2022-09-27T04:30:33.855Z,66.79
2022-09-27T04:33:04.899Z,67.03
2022-09-27T04:35:53.463Z,67.08
2022-09-27T04:38:23.944Z,67.12
2022-09-27T04:40:51.674Z,66.92
2022-09-27T04:43:19.139Z,66.84
2022-09-27T04:45:46.841Z,66.70
2022-09-27T04:48:14.637Z,67.07
2022-09-27T04:50:42.108Z,67.23
2022-09-27T04:53:14.143Z,67.30
2022-09-27T04:55:46.389Z,67.68
2022-09-27T04:58:14.146Z,66.98
2022-09-27T05:00:45.474Z,67.22
2022-09-27T05:03:15.741Z,68.12
2022-09-27T05:05:43.192Z,68.07
2022-09-27T05:08:10.798Z,68.19
2022-09-27T05:10:47.708Z,68.41
2022-09-27T05:13:15.445Z,68.91
2022-09-27T05:15:43.185Z,68.93
2022-09-27T05:18:12.392Z,68.82
2022-09-27T05:20:42.089Z,68.61
2022-09-27T05:23:09.813Z,68.59
2022-09-27T05:25:37.257Z,67.98
2022-09-27T05:28:05.472Z,67.66
2022-09-27T05:30:33.162Z,67.96
2022-09-27T05:33:01.980Z,68.30
2022-09-27T05:35:30.363Z,68.28
2022-09-27T05:37:59.997Z,68.43
2022-09-27T05:40:40.910Z,68.81
2022-09-27T05:43:09.727Z,68.83
2022-09-27T05:45:37.691Z,68.79
2022-09-27T05:48:05.893Z,68.70
2022-09-27T05:50:36.142Z,68.70
2022-09-27T05:53:03.876Z,68.39
2022-09-27T05:55:31.243Z,68.90
2022-09-27T05:58:04.442Z,68.52
2022-09-27T06:00:32.540Z,68.98
2022-09-27T06:03:17.387Z,69.18
2022-09-27T06:05:51.372Z,68.98
2022-09-27T06:08:20.402Z,68.62
2022-09-27T06:10:48.063Z,68.53
2022-09-27T06:13:16.167Z,68.72
2022-09-27T06:15:45.278Z,68.08
2022-09-27T06:18:16.177Z,67.64
2022-09-27T06:20:44.252Z,68.04
2022-09-27T06:23:13.819Z,67.70
2022-09-27T06:25:41.765Z,68.56
2022-09-27T06:28:10.762Z,68.03
2022-09-27T06:30:40.798Z,68.23
2022-09-27T06:33:13.573Z,68.81
2022-09-27T06:35:45.443Z,68.75
2022-09-27T06:38:13.898Z,68.29
2022-09-27T06:40:47.603Z,67.42
2022-09-27T06:43:20.508Z,67.65
2022-09-27T06:45:48.952Z,68.12
2022-09-27T06:48:20.624Z,67.73
2022-09-27T06:50:49.149Z,67.76
2022-09-27T06:53:17.103Z,71.46
2022-09-27T06:55:45.312Z,70.10
2022-09-27T06:58:31.413Z,68.14
2022-09-27T07:01:00.562Z,67.89
2022-09-27T07:03:35.332Z,67.85
2022-09-27T07:06:06.320Z,68.59
2022-09-27T07:09:00.136Z,68.02
2022-09-27T07:11:28.577Z,67.77
2022-09-27T07:13:56.505Z,67.02
2022-09-27T07:16:24.155Z,66.73
2022-09-27T07:18:51.801Z,66.47
2022-09-27T07:21:19.236Z,66.31
2022-09-27T07:23:47.195Z,66.02
2022-09-27T07:26:15.088Z,65.62
2022-09-27T07:28:43.261Z,65.41
2022-09-27T07:31:13.205Z,65.09
2022-09-27T07:33:43.213Z,64.72
2022-09-27T07:36:12.777Z,64.58
2022-09-27T07:38:41.308Z,64.82
2022-09-27T07:41:11.013Z,64.62
2022-09-27T07:43:38.417Z,64.56
2022-09-27T07:46:06.471Z,64.61
2022-09-27T07:48:34.247Z,64.91
2022-09-27T07:51:01.728Z,64.42
2022-09-27T07:53:34.220Z,64.81
2022-09-27T07:56:02.634Z,65.13
2022-09-27T07:58:32.243Z,65.11
2022-09-27T08:01:01.032Z,65.73
2022-09-27T08:03:28.984Z,65.65
2022-09-27T08:05:56.301Z,65.42
2022-09-27T08:08:24.268Z,66.05
2022-09-27T08:10:53.645Z,65.51
2022-09-27T08:13:21.347Z,66.04
2022-09-27T08:15:48.921Z,66.13
2022-09-27T08:18:17.614Z,66.06
2022-09-27T08:20:46.884Z,65.68
2022-09-27T08:23:15.938Z,65.93
2022-09-27T08:25:44.136Z,66.18
2022-09-27T08:28:11.554Z,65.68
2022-09-27T08:30:39.818Z,65.56
2022-09-27T08:33:08.203Z,65.59
2022-09-27T08:35:36.168Z,65.82
2022-09-27T08:38:05.856Z,65.74
2022-09-27T08:40:53.223Z,65.12
2022-09-27T08:43:36.600Z,64.91
2022-09-27T08:46:14.737Z,65.06
2022-09-27T08:48:43.166Z,64.76
2022-09-27T08:51:12.497Z,64.45
2022-09-27T08:53:44.973Z,64.88
2022-09-27T08:56:15.248Z,65.02
2022-09-27T08:58:50.741Z,65.06
2022-09-27T09:01:19.260Z,65.22
2022-09-27T09:03:55.785Z,64.55
2022-09-27T09:06:37.396Z,64.84
2022-09-27T09:09:16.516Z,65.24
2022-09-27T09:12:14.930Z,65.46
2022-09-27T09:15:07.405Z,65.38
2022-09-27T09:18:26.389Z,66.16
2022-09-27T09:21:05.530Z,65.24
2022-09-27T09:24:08.072Z,65.71
2022-09-27T09:27:10.924Z,66.10
2022-09-27T09:29:47.524Z,66.57
2022-09-27T09:32:39.507Z,66.01
2022-09-27T09:35:12.683Z,65.95
2022-09-27T09:37:43.556Z,66.37
2022-09-27T09:40:30.295Z,66.66
2022-09-27T09:43:15.631Z,66.36
2022-09-27T09:45:46.536Z,65.68
2022-09-27T09:48:29.383Z,66.09
2022-09-27T09:51:00.150Z,66.12
2022-09-27T09:53:33.564Z,66.26
2022-09-27T09:56:15.899Z,65.45
2022-09-27T09:58:48.918Z,65.88
2022-09-27T10:01:23.729Z,65.64
2022-09-27T10:03:51.493Z,64.79
2022-09-27T10:06:19.326Z,65.05
2022-09-27T10:08:47.531Z,65.75
2022-09-27T10:11:25.211Z,65.91
2022-09-27T10:13:53.464Z,65.41
2022-09-27T10:16:21.697Z,66.07
2022-09-27T10:18:50.443Z,65.43
2022-09-27T10:21:24.199Z,64.91
2022-09-27T10:24:25.737Z,64.96
2022-09-27T10:26:58.914Z,65.34
2022-09-27T10:29:37.919Z,64.80
2022-09-27T10:32:19.432Z,65.46
2022-09-27T10:34:47.176Z,64.77
2022-09-27T10:37:17.234Z,64.89
2022-09-27T10:39:47.688Z,64.62
2022-09-27T10:42:33.639Z,64.66
2022-09-27T10:45:20.963Z,64.80
2022-09-27T10:47:49.078Z,64.52
2022-09-27T10:50:49.844Z,64.38
2022-09-27T10:53:16.551Z,64.44
2022-09-27T10:55:50.235Z,64.17
2022-09-27T10:58:26.079Z,64.18
2022-09-27T11:01:08.299Z,63.68
2022-09-27T11:03:49.334Z,64.25
2022-09-27T11:06:28.389Z,63.38
2022-09-27T11:09:09.316Z,63.35
2022-09-27T11:11:36.985Z,62.79
2022-09-27T11:14:23.869Z,61.77
2022-09-27T11:16:58.335Z,61.74
2022-09-27T11:19:45.290Z,61.56
2022-09-27T11:22:27.804Z,61.67
2022-09-27T11:25:31.857Z,61.47
2022-09-27T11:28:22.973Z,60.53
2022-09-27T11:31:19.643Z,60.37
2022-09-27T11:34:15.219Z,61.41
2022-09-27T11:37:01.499Z,60.88
2022-09-27T11:39:39.274Z,61.34
2022-09-27T11:42:55.712Z,61.99
2022-09-27T11:48:40.343Z,61.75
2022-09-27T11:51:23.047Z,61.70
2022-09-27T11:53:50.828Z,61.83
2022-09-27T11:56:47.872Z,61.53
2022-09-27T11:59:31.740Z,61.51
2022-09-27T12:02:14.857Z,62.01
2022-09-27T12:05:08.262Z,61.75
2022-09-27T12:08:04.848Z,61.66
2022-09-27T12:10:33.355Z,61.58
2022-09-27T12:13:01.244Z,61.92
2022-09-27T12:15:33.827Z,62.03
2022-09-27T12:18:25.737Z,62.07
2022-09-27T12:20:53.861Z,61.85
2022-09-27T12:23:39.416Z,61.29
2022-09-27T12:26:15.655Z,61.31
2022-09-27T12:29:03.229Z,62.49
2022-09-27T12:31:34.330Z,62.29
2022-09-27T12:34:19.348Z,62.37
2022-09-27T12:37:04.692Z,62.53
2022-09-27T12:39:48.047Z,61.49
2022-09-27T12:42:20.674Z,61.36
2022-09-27T12:44:50.794Z,61.37
2022-09-27T12:47:46.450Z,60.96
2022-09-27T12:50:38.553Z,60.67
2022-09-27T12:53:31.082Z,59.41
2022-09-27T12:56:24.476Z,59.05
2022-09-27T12:59:07.451Z,59.59
2022-09-27T13:02:06.219Z,59.35
2022-09-27T13:04:45.114Z,59.20
2022-09-27T13:07:42.158Z,59.99
2022-09-27T13:10:29.660Z,60.74
2022-09-27T13:13:00.236Z,61.08
2022-09-27T13:15:31.229Z,61.20
2022-09-27T13:18:05.445Z,61.24
2022-09-27T13:20:35.955Z,60.64
2022-09-27T13:23:29.012Z,60.51
2022-09-27T13:26:04.929Z,60.49
2022-09-27T13:29:03.271Z,60.66
2022-09-27T13:31:58.866Z,60.50
2022-09-27T13:34:57.108Z,59.73
2022-09-27T13:37:51.624Z,60.75
2022-09-27T13:40:27.240Z,60.63
2022-09-27T13:43:13.235Z,60.16
2022-09-27T13:46:01.366Z,59.34
2022-09-27T13:48:32.836Z,59.12
2022-09-27T13:51:04.672Z,59.92
2022-09-27T13:53:40.026Z,59.86
2022-09-27T13:56:36.530Z,61.01
2022-09-27T13:59:10.025Z,60.49
2022-09-27T14:01:41.888Z,59.17
2022-09-27T14:04:24.831Z,60.10
2022-09-27T14:06:58.219Z,60.49
2022-09-27T14:09:32.629Z,61.53
2022-09-27T14:12:03.791Z,61.83
2022-09-27T14:14:32.979Z,61.95
2022-09-27T14:17:00.888Z,62.53
2022-09-27T14:19:29.029Z,63.21
2022-09-27T14:21:57.080Z,62.59
2022-09-27T14:24:26.979Z,62.80
2022-09-27T14:27:24.505Z,63.70
2022-09-27T14:29:53.910Z,63.65
2022-09-27T14:32:33.876Z,64.12
2022-09-27T14:35:38.258Z,63.81
2022-09-27T14:38:33.069Z,64.32
2022-09-27T14:41:00.568Z,64.82
2022-09-27T14:43:29.382Z,65.00
2022-09-27T14:46:00.036Z,64.67
2022-09-27T14:48:29.038Z,67.56
2022-09-27T14:51:05.069Z,67.39
2022-09-27T14:53:37.800Z,67.14
2022-09-27T14:56:08.248Z,66.36
2022-09-27T14:58:47.197Z,65.99
2022-09-27T15:01:23.755Z,66.06
2022-09-27T15:03:52.543Z,64.74
2022-09-27T15:06:20.692Z,64.48
2022-09-27T15:08:49.663Z,66.41
2022-09-27T15:11:19.219Z,65.90
2022-09-27T15:13:51.197Z,65.65
2022-09-27T15:16:21.286Z,63.71
2022-09-27T15:18:58.587Z,64.76
2022-09-27T15:21:34.103Z,64.67
2022-09-27T15:24:02.774Z,64.26
2022-09-27T15:26:44.768Z,63.56
2022-09-27T15:29:23.605Z,62.39
2022-09-27T15:32:04.782Z,63.17
2022-09-27T15:34:34.386Z,62.00
2022-09-27T15:37:06.302Z,62.50
2022-09-27T15:39:34.409Z,64.39
2022-09-27T15:42:01.953Z,63.77
2022-09-27T15:44:38.085Z,63.96
2022-09-27T15:47:05.647Z,63.25
2022-09-27T15:49:35.919Z,63.24
2022-09-27T15:52:05.154Z,63.38
2022-09-27T15:54:35.804Z,62.52
2022-09-27T15:57:05.928Z,62.71
2022-09-27T15:59:35.344Z,63.23
2022-09-27T16:02:17.980Z,62.26
2022-09-27T16:04:46.077Z,62.06
2022-09-27T16:07:14.957Z,61.25
2022-09-27T16:09:43.532Z,62.02
2022-09-27T16:12:11.109Z,61.86
2022-09-27T16:14:38.421Z,63.19
2022-09-27T16:17:05.737Z,62.99
2022-09-27T16:19:33.326Z,63.31
2022-09-27T16:22:03.693Z,62.94
2022-09-27T16:24:32.027Z,63.37
2022-09-27T16:26:59.707Z,63.57
2022-09-27T16:29:26.990Z,63.48
2022-09-27T16:31:54.614Z,64.27
2022-09-27T16:34:22.618Z,64.48
2022-09-27T16:36:50.429Z,64.28
2022-09-27T16:39:17.878Z,64.40
2022-09-27T16:41:45.557Z,64.24
2022-09-27T16:44:14.192Z,64.17
2022-09-27T16:46:42.925Z,64.01
2022-09-27T16:49:30.439Z,64.18
2022-09-27T16:52:01.072Z,64.55
2022-09-27T16:54:29.710Z,65.05
2022-09-27T16:56:58.522Z,64.95
2022-09-27T16:59:26.163Z,65.14
2022-09-27T17:01:57.445Z,65.02
2022-09-27T17:04:27.349Z,65.28
2022-09-27T17:06:55.518Z,64.93
2022-09-27T17:09:25.518Z,65.27
2022-09-27T17:11:52.823Z,65.40
2022-09-27T17:14:20.579Z,65.53
2022-09-27T17:16:48.533Z,65.62
2022-09-27T17:19:18.184Z,65.71
2022-09-27T17:21:46.006Z,65.51
2022-09-27T17:24:13.520Z,65.58
2022-09-27T17:26:41.350Z,64.54
2022-09-27T17:29:12.463Z,64.60
2022-09-27T17:31:41.123Z,65.16
2022-09-27T17:34:12.033Z,65.37
2022-09-27T17:36:42.306Z,65.70
2022-09-27T17:39:16.967Z,65.78
2022-09-27T17:41:44.573Z,65.71
2022-09-27T17:44:38.628Z,65.63
2022-09-27T17:47:24.685Z,65.54
2022-09-27T17:50:10.633Z,65.46
2022-09-27T17:52:38.038Z,65.45
2022-09-27T17:55:05.744Z,65.18
2022-09-27T17:57:33.275Z,65.15
2022-09-27T18:00:01.276Z,65.07
2022-09-27T18:02:32.062Z,65.50
2022-09-27T18:04:59.733Z,65.89
2022-09-27T18:07:27.523Z,66.06
2022-09-27T18:09:54.849Z,66.06
2022-09-27T18:12:22.547Z,65.97
2022-09-27T18:14:50.179Z,66.10
2022-09-27T18:17:18.181Z,66.04
2022-09-27T18:19:45.755Z,66.31
2022-09-27T18:22:13.047Z,66.08
2022-09-27T18:24:40.323Z,65.94
2022-09-27T18:27:08.262Z,66.04
2022-09-27T18:29:35.597Z,65.93
2022-09-27T18:32:02.932Z,66.20
2022-09-27T18:34:30.519Z,66.28
2022-09-27T18:36:57.841Z,66.17
2022-09-27T18:39:25.423Z,66.34
2022-09-27T18:41:53.756Z,66.16
2022-09-27T18:44:21.111Z,66.04
2022-09-27T18:46:48.774Z,65.97
2022-09-27T18:49:16.543Z,66.08
2022-09-27T18:51:46.130Z,66.00
2022-09-27T18:54:18.921Z,65.92
2022-09-27T18:56:47.713Z,66.38
2022-09-27T18:59:15.669Z,65.94
2022-09-27T19:01:45.708Z,66.00
2022-09-27T19:04:20.455Z,66.19
2022-09-27T19:06:51.395Z,66.25
2022-09-27T19:09:19.074Z,65.98
2022-09-27T19:11:46.705Z,65.88
2022-09-27T19:14:19.144Z,65.94
2022-09-27T19:16:47.958Z,65.99
2022-09-27T19:19:16.542Z,65.78
2022-09-27T19:22:23.258Z,65.82
2022-09-27T19:24:53.689Z,66.04
2022-09-27T19:27:21.706Z,66.15
2022-09-27T19:29:49.780Z,65.93
2022-09-27T19:32:17.350Z,66.07
2022-09-27T19:34:44.639Z,65.80
2022-09-27T19:37:12.203Z,65.73
2022-09-27T19:39:39.833Z,65.77
2022-09-27T19:42:07.448Z,65.66
2022-09-27T19:44:34.758Z,65.80
2022-09-27T19:47:02.379Z,65.52
2022-09-27T19:49:29.948Z,65.62
2022-09-27T19:51:57.238Z,65.79
2022-09-27T19:54:24.939Z,65.62
2022-09-27T19:56:52.537Z,65.33
2022-09-27T19:59:20.012Z,65.42
2022-09-27T20:01:48.213Z,65.34
2022-09-27T20:04:15.990Z,65.53
2022-09-27T20:06:43.349Z,65.53
2022-09-27T20:09:10.943Z,65.57
2022-09-27T20:11:38.643Z,65.56
2022-09-27T20:14:05.984Z,65.76
2022-09-27T20:16:35.294Z,65.72
2022-09-27T20:19:04.564Z,65.61
2022-09-27T20:21:32.892Z,65.99
2022-09-27T20:24:02.017Z,65.65
2022-09-27T20:26:30.835Z,65.44
2022-09-27T20:28:59.862Z,65.41
2022-09-27T20:32:09.393Z,65.52
2022-09-27T20:34:37.809Z,65.70
2022-09-27T20:37:07.434Z,65.96
2022-09-27T20:39:34.716Z,65.73
2022-09-27T20:42:02.285Z,65.72
2022-09-27T20:44:29.868Z,65.47
2022-09-27T20:46:57.280Z,64.65
2022-09-27T20:49:25.027Z,64.58
2022-09-27T20:51:53.096Z,64.20
2022-09-27T20:54:20.419Z,63.99
2022-09-27T20:56:48.929Z,63.97
2022-09-27T20:59:21.175Z,63.53
2022-09-27T21:01:50.840Z,63.90
2022-09-27T21:04:19.427Z,62.19
2022-09-27T21:06:47.071Z,62.21
2022-09-27T21:09:21.237Z,62.13
2022-09-27T21:11:49.502Z,62.64
2022-09-27T21:14:17.212Z,62.68
2022-09-27T21:16:44.585Z,62.28
2022-09-27T21:19:12.023Z,62.45
2022-09-27T21:21:39.556Z,62.35
2022-09-27T21:24:07.136Z,62.28
2022-09-27T21:26:34.785Z,62.36
2022-09-27T21:29:37.687Z,61.75
2022-09-27T21:32:04.994Z,61.82
2022-09-27T21:34:32.577Z,61.69
2022-09-27T21:36:59.874Z,61.49
2022-09-27T21:39:27.172Z,62.03
2022-09-27T21:41:54.727Z,61.41
2022-09-27T21:44:22.039Z,61.66
2022-09-27T21:46:50.493Z,61.52
2022-09-27T21:49:18.149Z,60.42
2022-09-27T21:51:45.722Z,60.43
2022-09-27T21:54:14.972Z,60.72
2022-09-27T21:56:43.397Z,61.15
2022-09-27T21:59:13.622Z,60.83
2022-09-27T22:01:43.185Z,60.56
2022-09-27T22:04:11.088Z,61.19
2022-09-27T22:06:39.014Z,59.67
2022-09-27T22:09:08.717Z,60.06
2022-09-27T22:11:44.241Z,59.79
2022-09-27T22:14:12.192Z,59.58
2022-09-27T22:16:39.831Z,58.72
2022-09-27T22:19:07.468Z,59.80
2022-09-27T22:21:36.594Z,59.14
2022-09-27T22:24:07.983Z,59.90
2022-09-27T22:26:37.599Z,59.80
2022-09-27T22:29:06.207Z,60.00
2022-09-27T22:31:34.087Z,59.95
2022-09-27T22:34:03.536Z,60.60
2022-09-27T22:36:31.832Z,59.13
2022-09-27T22:38:59.188Z,58.99
2022-09-27T22:41:26.566Z,59.28
2022-09-27T22:43:54.143Z,59.32
2022-09-27T22:46:21.907Z,59.82
2022-09-27T22:48:51.929Z,59.44
2022-09-27T22:51:20.403Z,59.75
2022-09-27T22:53:47.713Z,59.17
2022-09-27T22:56:19.888Z,58.01
2022-09-27T22:58:48.875Z,59.33
2022-09-27T23:01:21.760Z,58.93
2022-09-27T23:03:51.260Z,59.13
2022-09-27T23:06:19.667Z,58.43
2022-09-27T23:08:47.602Z,58.94
2022-09-27T23:11:20.241Z,59.35
2022-09-27T23:13:48.216Z,59.21
2022-09-27T23:16:19.315Z,58.81
2022-09-27T23:18:52.351Z,59.11
2022-09-27T23:21:19.899Z,59.42
2022-09-27T23:23:47.455Z,59.88
2022-09-27T23:26:16.392Z,60.04
2022-09-27T23:28:44.332Z,59.80
2022-09-27T23:31:16.763Z,60.04
2022-09-27T23:33:47.366Z,59.71
2022-09-27T23:36:16.841Z,59.23
2022-09-27T23:38:45.801Z,59.92
2022-09-27T23:41:15.121Z,58.80
2022-09-27T23:43:42.516Z,58.79
2022-09-27T23:46:10.643Z,59.69
2022-09-27T23:49:01.116Z,59.49
2022-09-27T23:51:28.384Z,59.51
2022-09-27T23:53:57.676Z,58.66
2022-09-27T23:56:25.372Z,59.25
2022-09-27T23:58:52.679Z,59.39
